Flight ASXVIP6

  • Submitted By: Krzysztof H. Blaszkow
  • Departure Airport: Dublin (EIDW)
  • Arrival Airport: Kerry Airport (EIKY)
  • Aircraft: BE58 (EJ-IAWH)
  • Flight Time: 01.17.44
  • Date Submitted: 04/22/2017
  • Status: Accepted
Flight Details
Gross Revenue:
(5 load / € 450.00 per unit
€ 2,250.00
Fuel Cost:
(83.0074 fuel used @ 0.45 / unit)
€ 37.35

Additional Log Information:

View Log

[18:27] - Carenado BARON B58 GOLD GREEN
[18:27] - Flight ASXVIP6 is ready to depart EIDW with a final destination of EIKY.
[18:27] - Parking Brake Applied
[18:27] - Beacon Light ON
[18:27] - Wing Lights ON
[18:27] - Boarding
[18:27] - ADF1 - 284.0
[18:27] - ADF2 - 240.0
[18:27] - NAV1 - 114.90
[18:27] - NAV2 - 110.60
[18:27] - COM1 - 122.80
[18:27] - COM2 - 127.80
[18:27] - Transponder - 2000
[18:28] - Taxi Lights ON 3AGL
[18:28] - Engine 1 Started
[18:28] - Engine 2 Started
[18:31] - Parking Brake Released
[18:31] - Taxiing to Runway
[18:32] - Landing Lights ON 3AGL
[18:32] - Taxi Lights OFF 3AGL
[18:32] - Strobe Lights ON 3AGL
[18:34] - Taking Off with 5 passengers on board
[18:34] - Take off at 90kts, with a pitch of 6deg and 296lbs of fuel on board
[18:34] - Wind Heading 260 | Wind Speed 4kts | Temperature 11 deg C
[18:34] - METAR Departure: EIDW 221700Z 16004KT 9999 FEW018 BKN024 BKN036 12/08 Q1029 NOSIG

[18:34] - Gear up at 374AGL
[18:35] - Climbing to TOC
[18:36] - AutoPilot Engaged at 3084AGL
[18:40] - Landing Lights OFF 6253AGL
[18:40] - Landing Lights ON 6316AGL
[18:43] - NAV1 - 108.70
[18:43] - Landing Lights OFF 9524AGL
[18:47] - TOC reached
[18:47] - Cruise started
[19:04] - NAV1 - 113.30
[19:06] - TOD reached
[19:06] - Descending to destination
[19:06] - NAV1 - 108.70
[19:07] - Landing Lights ON 10360AGL
[19:20] - Landing Shortly
[19:33] - AutoPilot Disengaged at 2106AGL
[19:35] - Flaps to position 1 at 1273ft and 158kts
[19:36] - Flaps to position 0 at 676ft and 109kts
[19:38] - Flaps to position 1 at 1125ft and 172kts
[19:39] - Gear down at 683AGL
[19:40] - Landed at -151fpm. With 117lbs of fuel onboard and a pitch angle of 1deg.
[19:40] - Wind Heading 350 | Wind Speed 4kts | Temperature 13 deg C
[19:40] - METAR Arrival: EIKY 221800Z 01004KT 340V050 9999 BKN042 14/07 Q1030

[19:40] - Flaps to position 0
[19:40] - Taxiing to Gate
[19:42] - Landing Lights OFF 0AGL
[19:42] - Taxi Lights ON 0AGL
[19:42] - Strobe Lights OFF 0AGL
[19:43] - Parking Brake Applied
[19:43] - Arrived safely at EIKY. We hope you enjoyed your flight!
[19:43] - Taxi Lights OFF 0AGL
[19:43] - Engine 1 Stopped
[19:43] - Engine 2 Stopped
[19:45] - Carenado BARON B58 GOLD GREEN
[19:45] - MaxSim Rate: 1x
[19:45] - SiouxAcars ver: 1.0.1.2

Route Map